Terminal Aerodrome Forecast
Issued by NWS Topeka, KS

Home | Current Version | Previous Version | Graphics & Text | Print | Product List | Glossary On
Versions: 1 2 3 4 5 6 7 8 9 10 11 12 13 14 15 16 17 18 19
000
FTUS43 KTOP 130900 AAA
TAFTOP
TAF AMD
KTOP 130929Z 1309/1406 14012KT P6SM BKN035 OVC100
      TEMPO 1309/1311 6SM -TSRA SCT025 BKN035CB
     FM131800 18017G27KT P6SM VCTS BKN040CB
     FM132000 12010KT 4SM TSRA BKN020CB OVC040
     FM132200 35017G27KT 4SM TSRA OVC015CB
     FM140000 35020G32KT 4SM -DZ OVC015=

USA.gov is the U.S. government's official web portal to all federal, state and local government web resources and services.